Time;durP1;ratioP1;P1;durP2;ratioP2;P2;SDS_P1;SDS_P2;PMS_P1;PMS_P2;Temp;Humidity;BMP_temperature;BMP_pressure;BME280_temperature;BME280_humidity;BME280_pressure;Samples;Min_cycle;Max_cycle;Signal;HPM_P1;HPM_P2
2022/07/28 00:02:26;;;;;;;4.10;1.58;;;14.00;85.80;;;;;;5054413;28;20041;-43
2022/07/28 00:04:54;;;;;;;5.93;1.33;;;14.00;86.20;;;;;;5069930;28;20537;-42
2022/07/28 00:07:20;;;;;;;2.63;1.40;;;13.90;86.60;;;;;;5073909;28;20072;-43
2022/07/28 00:09:47;;;;;;;2.72;1.20;;;13.90;86.80;;;;;;5066589;28;20131;-43
2022/07/28 00:12:14;;;;;;;5.00;1.60;;;13.80;86.70;;;;;;5064300;28;20048;-42
2022/07/28 00:14:41;;;;;;;3.67;1.60;;;13.80;86.90;;;;;;5067091;28;20080;-43
2022/07/28 00:17:07;;;;;;;2.58;1.27;;;13.80;87.10;;;;;;5057973;28;20133;-42
2022/07/28 00:19:34;;;;;;;4.90;1.58;;;13.70;87.30;;;;;;5062750;28;20120;-43
2022/07/28 00:22:02;;;;;;;3.13;1.30;;;13.70;87.30;;;;;;5059130;28;20521;-43
2022/07/28 00:24:30;;;;;;;2.80;1.35;;;13.70;87.30;;;;;;5065802;28;20552;-43
2022/07/28 00:26:57;;;;;;;5.45;1.70;;;13.70;87.20;;;;;;5059398;28;20061;-44
2022/07/28 00:29:24;;;;;;;2.88;1.38;;;13.70;87.20;;;;;;5071879;28;20453;-44
2022/07/28 00:31:50;;;;;;;3.47;1.52;;;13.70;87.40;;;;;;5070945;28;20480;-43
2022/07/28 00:34:17;;;;;;;6.90;1.80;;;13.70;87.50;;;;;;5058861;28;20136;-44
2022/07/28 00:36:44;;;;;;;4.20;1.52;;;13.60;87.30;;;;;;5065845;28;20388;-43
2022/07/28 00:39:12;;;;;;;3.13;1.20;;;13.60;87.60;;;;;;5062067;28;20492;-43
2022/07/28 00:41:39;;;;;;;3.17;1.40;;;13.60;87.90;;;;;;5048797;28;20526;-44
2022/07/28 00:44:07;;;;;;;2.53;1.30;;;13.60;88.30;;;;;;5043235;28;20045;-44
2022/07/28 00:46:33;;;;;;;4.15;1.48;;;13.50;88.90;;;;;;5051281;28;20044;-44
2022/07/28 00:49:00;;;;;;;3.88;1.65;;;13.50;89.50;;;;;;5067779;28;20041;-43
2022/07/28 00:51:27;;;;;;;2.78;1.05;;;13.30;89.80;;;;;;5066529;28;20115;-43
2022/07/28 00:53:54;;;;;;;3.10;1.40;;;13.40;89.70;;;;;;5075887;28;20055;-43
2022/07/28 00:56:22;;;;;;;3.53;1.52;;;13.30;89.60;;;;;;5066124;28;20120;-44
2022/07/28 00:58:49;;;;;;;1.83;1.17;;;13.40;89.40;;;;;;5062271;28;20120;-43
2022/07/28 01:01:18;;;;;;;1.45;1.02;;;13.30;89.60;;;;;;5071498;28;20115;-43
2022/07/28 01:03:46;;;;;;;2.30;1.25;;;13.30;89.50;;;;;;5040884;28;20049;-43
2022/07/28 01:06:18;;;;;;;3.80;1.40;;;13.40;89.40;;;;;;5046097;28;20118;-43
2022/07/28 01:08:53;;;;;;;2.42;1.48;;;13.30;89.60;;;;;;5069639;28;20076;-43
2022/07/28 01:11:25;;;;;;;5.53;1.33;;;13.30;89.90;;;;;;5072942;28;20115;-42
2022/07/28 01:13:58;;;;;;;1.92;1.27;;;13.30;90.00;;;;;;5057238;28;20088;-43
2022/07/28 01:16:25;;;;;;;4.80;1.70;;;13.30;89.80;;;;;;5066987;28;20174;-43
2022/07/28 01:18:54;;;;;;;5.65;1.75;;;13.30;90.10;;;;;;5048014;28;20465;-42
2022/07/28 01:21:23;;;;;;;3.40;1.63;;;13.30;90.30;;;;;;5052434;28;20574;-43
2022/07/28 01:23:57;;;;;;;3.30;1.55;;;13.20;90.70;;;;;;5056995;28;20136;-43
2022/07/28 01:26:42;;;;;;;5.20;2.00;;;13.20;90.50;;;;;;5057805;28;20059;-43
2022/07/28 01:29:21;;;;;;;2.22;1.60;;;13.20;90.30;;;;;;5047730;28;20051;-42
2022/07/28 01:31:51;;;;;;;4.05;1.33;;;13.20;90.30;;;;;;5065833;28;20028;-43
2022/07/28 01:34:20;;;;;;;5.30;1.90;;;13.10;90.40;;;;;;5056774;28;20072;-44
2022/07/28 01:36:54;;;;;;;4.22;1.85;;;13.10;90.50;;;;;;5063998;28;20056;-42
2022/07/28 01:39:21;;;;;;;2.72;1.73;;;13.10;90.70;;;;;;5068025;28;20486;-44
2022/07/28 01:41:48;;;;;;;3.00;1.70;;;13.10;90.80;;;;;;5058312;28;20147;-43
2022/07/28 01:44:16;;;;;;;2.17;1.48;;;13.00;90.90;;;;;;5066068;28;20102;-43
2022/07/28 01:46:43;;;;;;;2.97;1.63;;;13.00;91.00;;;;;;5060368;28;20052;-43
2022/07/28 01:49:11;;;;;;;3.25;1.70;;;13.00;91.00;;;;;;5059463;28;20052;-43
2022/07/28 01:51:38;;;;;;;2.63;1.52;;;13.00;91.40;;;;;;5060786;28;20041;-43
2022/07/28 01:54:04;;;;;;;3.88;1.80;;;13.00;91.40;;;;;;5062698;28;20079;-42
2022/07/28 01:56:32;;;;;;;4.47;2.10;;;12.90;91.40;;;;;;5062425;28;20136;-43
2022/07/28 01:59:00;;;;;;;2.55;1.77;;;12.90;91.60;;;;;;5054500;28;20445;-43
2022/07/28 02:01:27;;;;;;;8.57;1.90;;;12.90;91.70;;;;;;5054768;28;20119;-43
2022/07/28 02:03:54;;;;;;;4.10;1.63;;;12.90;91.70;;;;;;5073634;28;20116;-43
2022/07/28 02:06:22;;;;;;;3.60;1.75;;;12.90;92.00;;;;;;5062976;28;20083;-43
2022/07/28 02:08:48;;;;;;;2.75;1.42;;;12.80;91.80;;;;;;5057787;28;20049;-42
2022/07/28 02:13:59;;;;;;;4.80;2.13;;;12.80;91.80;;;;;;5063490;28;20032;-43
2022/07/28 02:16:26;;;;;;;3.20;2.10;;;12.80;91.90;;;;;;5041470;28;20333;-43
2022/07/28 02:18:54;;;;;;;3.50;1.65;;;12.80;92.10;;;;;;5043246;28;20136;-43
2022/07/28 02:21:22;;;;;;;3.05;1.90;;;12.70;92.00;;;;;;5039434;28;20495;-43
2022/07/28 02:23:49;;;;;;;4.28;1.73;;;12.80;92.10;;;;;;5054859;28;20125;-43
2022/07/28 02:26:16;;;;;;;3.67;1.98;;;12.70;92.10;;;;;;5058756;28;20083;-43
2022/07/28 02:28:45;;;;;;;3.90;1.80;;;12.70;92.20;;;;;;5051531;28;20059;-44
2022/07/28 02:31:13;;;;;;;4.32;2.33;;;12.70;92.00;;;;;;5061748;28;20048;-43
2022/07/28 02:33:40;;;;;;;4.25;2.05;;;12.70;92.20;;;;;;5052010;28;20095;-43
2022/07/28 02:36:09;;;;;;;4.78;2.22;;;12.70;92.60;;;;;;5066381;28;20088;-44
2022/07/28 02:38:40;;;;;;;4.90;2.30;;;12.60;92.80;;;;;;5053357;28;20045;-44
2022/07/28 02:41:10;;;;;;;4.00;2.22;;;12.50;93.30;;;;;;5066191;28;20050;-42
2022/07/28 02:43:37;;;;;;;4.90;2.10;;;12.40;93.50;;;;;;5069685;28;20055;-44
2022/07/28 02:46:06;;;;;;;2.63;1.90;;;12.20;93.60;;;;;;5063345;28;20473;-43
2022/07/28 02:48:35;;;;;;;6.55;2.20;;;12.20;93.80;;;;;;5070192;28;20057;-43
2022/07/28 02:51:02;;;;;;;6.00;2.35;;;12.20;94.00;;;;;;5058262;28;20043;-43
2022/07/28 02:53:29;;;;;;;5.20;2.25;;;12.10;94.20;;;;;;5053697;28;20132;-42
2022/07/28 02:55:57;;;;;;;3.60;2.20;;;12.10;94.30;;;;;;5045487;28;20538;-43
2022/07/28 02:58:24;;;;;;;2.63;1.90;;;12.00;94.30;;;;;;5053071;28;20459;-43
2022/07/28 03:00:52;;;;;;;3.63;1.77;;;12.00;94.20;;;;;;5060395;28;20037;-42
2022/07/28 03:03:18;;;;;;;5.05;2.00;;;12.00;94.00;;;;;;5059777;28;20127;-43
2022/07/28 03:05:45;;;;;;;4.10;2.30;;;12.00;94.10;;;;;;5063817;28;20093;-44
2022/07/28 03:08:12;;;;;;;4.85;2.65;;;12.00;94.30;;;;;;5050651;28;20049;-42
2022/07/28 03:10:40;;;;;;;5.55;2.25;;;11.90;94.50;;;;;;5068217;28;20119;-43
2022/07/28 03:13:08;;;;;;;6.40;2.30;;;11.90;94.70;;;;;;5059806;28;20111;-43
2022/07/28 03:15:35;;;;;;;3.80;2.10;;;11.90;94.80;;;;;;5051064;28;20135;-44
2022/07/28 03:18:02;;;;;;;3.58;2.15;;;11.90;94.90;;;;;;5033770;28;20084;-43
2022/07/28 03:20:29;;;;;;;5.97;2.40;;;11.90;94.60;;;;;;5052131;28;20062;-42
2022/07/28 03:22:57;;;;;;;4.38;2.25;;;11.90;94.50;;;;;;5052507;28;20123;-43
2022/07/28 03:25:28;;;;;;;2.33;1.83;;;11.90;94.60;;;;;;5052231;28;20131;-43
2022/07/28 03:27:54;;;;;;;3.90;2.50;;;11.90;94.30;;;;;;5051042;28;20048;-43
2022/07/28 03:30:25;;;;;;;3.97;2.05;;;11.90;94.20;;;;;;5050489;28;20073;-43
2022/07/28 03:32:53;;;;;;;6.32;2.00;;;12.00;94.20;;;;;;5050814;28;20049;-44
2022/07/28 03:35:20;;;;;;;4.22;2.22;;;12.00;94.10;;;;;;5044825;28;20076;-44
2022/07/28 03:37:52;;;;;;;4.07;2.08;;;12.00;93.90;;;;;;5043074;28;20049;-43
2022/07/28 03:40:19;;;;;;;2.50;1.60;;;12.10;93.90;;;;;;5069717;28;20048;-43
2022/07/28 03:42:47;;;;;;;3.80;2.13;;;12.00;93.80;;;;;;5061883;28;20048;-43
2022/07/28 03:45:14;;;;;;;2.83;1.90;;;12.00;93.80;;;;;;5071029;28;20083;-42
2022/07/28 03:47:50;;;;;;;5.35;2.13;;;12.10;93.70;;;;;;5067633;28;20071;-43
2022/07/28 03:50:17;;;;;;;5.00;1.70;;;12.10;93.60;;;;;;5058311;28;20057;-42
2022/07/28 03:52:44;;;;;;;3.88;1.75;;;12.10;93.70;;;;;;5067566;28;20129;-42
2022/07/28 03:55:12;;;;;;;5.38;2.03;;;12.10;93.60;;;;;;5064969;28;20058;-42
2022/07/28 03:57:38;;;;;;;6.63;2.30;;;12.10;93.70;;;;;;5053803;28;20120;-43
2022/07/28 04:00:06;;;;;;;3.55;2.05;;;12.10;93.90;;;;;;5049852;28;20084;-43
2022/07/28 04:02:33;;;;;;;4.47;2.22;;;12.00;93.70;;;;;;5065857;28;20072;-42
2022/07/28 04:05:01;;;;;;;3.35;1.98;;;12.00;93.80;;;;;;5071224;28;20055;-43
2022/07/28 04:07:28;;;;;;;3.45;2.17;;;12.00;94.00;;;;;;5065477;28;20059;-43
2022/07/28 04:09:55;;;;;;;2.88;1.80;;;12.00;94.00;;;;;;5057090;28;20073;-42
2022/07/28 04:12:22;;;;;;;4.57;2.25;;;12.00;94.10;;;;;;5056358;28;20139;-41
2022/07/28 04:14:49;;;;;;;5.50;2.13;;;12.00;94.10;;;;;;5069391;28;20486;-43
2022/07/28 04:17:15;;;;;;;2.70;1.73;;;12.00;94.10;;;;;;5042800;28;20133;-43
2022/07/28 04:19:42;;;;;;;2.72;1.60;;;12.00;94.20;;;;;;5056616;28;20680;-42
2022/07/28 04:22:10;;;;;;;4.25;1.85;;;12.00;94.40;;;;;;5058887;28;20048;-42
2022/07/28 04:24:37;;;;;;;3.03;1.88;;;11.90;94.50;;;;;;5067527;28;20417;-43
2022/07/28 04:27:04;;;;;;;3.90;2.03;;;11.90;94.70;;;;;;5071266;28;20575;-43
2022/07/28 04:29:31;;;;;;;8.93;2.45;;;11.90;95.00;;;;;;5069433;28;20124;-43
2022/07/28 04:31:57;;;;;;;6.60;2.10;;;11.80;95.60;;;;;;5052537;28;20132;-43
2022/07/28 04:34:24;;;;;;;6.03;2.47;;;11.70;95.50;;;;;;5067859;28;20136;-43
2022/07/28 04:36:51;;;;;;;3.05;2.13;;;11.70;95.60;;;;;;5054077;28;20041;-43
2022/07/28 04:39:19;;;;;;;4.03;2.10;;;11.70;95.60;;;;;;5069431;28;20118;-43
2022/07/28 04:41:46;;;;;;;4.13;2.20;;;11.70;95.70;;;;;;5069724;28;20036;-43
2022/07/28 04:44:13;;;;;;;6.28;2.15;;;11.70;95.60;;;;;;5070032;28;20050;-43
2022/07/28 04:46:40;;;;;;;3.50;1.90;;;11.70;95.50;;;;;;5070256;28;20048;-42
2022/07/28 04:49:07;;;;;;;3.40;1.95;;;11.70;95.30;;;;;;5068322;28;20543;-43
2022/07/28 04:51:33;;;;;;;3.83;2.10;;;11.70;95.40;;;;;;5070439;28;20056;-43
2022/07/28 04:54:00;;;;;;;9.55;2.50;;;11.70;95.20;;;;;;5066601;28;20454;-43
2022/07/28 04:56:28;;;;;;;3.67;2.13;;;11.70;95.20;;;;;;5070329;28;20457;-43
2022/07/28 04:58:55;;;;;;;5.30;1.83;;;11.80;95.40;;;;;;5072995;28;20068;-43
2022/07/28 05:01:22;;;;;;;4.93;2.30;;;11.80;95.10;;;;;;5071026;28;20133;-43
2022/07/28 05:03:49;;;;;;;6.18;2.40;;;11.80;95.10;;;;;;5057957;28;20060;-43
2022/07/28 05:06:17;;;;;;;4.97;2.03;;;11.80;95.20;;;;;;5061518;28;20127;-43
2022/07/28 05:08:44;;;;;;;3.15;1.88;;;11.90;95.20;;;;;;5070114;28;20067;-43
2022/07/28 05:11:10;;;;;;;3.30;2.10;;;11.90;95.10;;;;;;5053256;28;20053;-43
2022/07/28 05:13:38;;;;;;;6.68;2.33;;;11.90;95.00;;;;;;5059611;28;20087;-43
2022/07/28 05:16:06;;;;;;;6.75;1.90;;;12.00;95.20;;;;;;5066948;28;20032;-43
2022/07/28 05:18:32;;;;;;;5.15;2.25;;;12.00;95.20;;;;;;5055801;28;20051;-43
2022/07/28 05:20:59;;;;;;;4.53;2.45;;;12.10;95.30;;;;;;5056830;28;20074;-43
2022/07/28 05:23:26;;;;;;;5.82;2.38;;;12.20;95.50;;;;;;5055419;28;20076;-42
2022/07/28 05:25:53;;;;;;;4.75;2.47;;;12.30;95.60;;;;;;5055151;28;20080;-43
2022/07/28 05:28:19;;;;;;;4.45;2.58;;;12.30;95.90;;;;;;5064677;28;20124;-43
2022/07/28 05:30:47;;;;;;;5.22;2.15;;;12.40;96.30;;;;;;5065661;28;20072;-43
2022/07/28 05:33:15;;;;;;;4.65;2.03;;;12.40;96.30;;;;;;5055398;28;20131;-44
2022/07/28 05:35:43;;;;;;;5.00;2.10;;;12.50;96.20;;;;;;5056872;28;20136;-43
2022/07/28 05:38:10;;;;;;;9.35;2.97;;;12.60;96.10;;;;;;5054367;28;20483;-43
2022/07/28 05:40:37;;;;;;;7.88;2.80;;;12.70;96.20;;;;;;5053160;28;20049;-44
2022/07/28 05:43:03;;;;;;;8.25;2.45;;;12.80;96.50;;;;;;5061635;28;20048;-44
2022/07/28 05:45:32;;;;;;;11.10;2.92;;;12.90;96.60;;;;;;5050607;28;20045;-41
2022/07/28 05:48:00;;;;;;;4.55;2.85;;;13.00;96.80;;;;;;5048329;28;20372;-41
2022/07/28 05:50:27;;;;;;;7.22;2.83;;;13.10;97.00;;;;;;5053424;28;20045;-43
2022/07/28 05:52:54;;;;;;;10.20;3.17;;;13.30;96.90;;;;;;5071056;28;20366;-43
2022/07/28 05:55:21;;;;;;;7.25;2.75;;;13.40;96.90;;;;;;5041733;28;20155;-43
2022/07/28 05:57:47;;;;;;;6.40;2.42;;;13.60;96.80;;;;;;5057303;28;20365;-43
2022/07/28 06:00:15;;;;;;;8.25;2.58;;;13.80;96.90;;;;;;5041685;28;20135;-43
2022/07/28 06:02:44;;;;;;;7.20;1.77;;;14.00;96.80;;;;;;5052074;28;20545;-42
2022/07/28 06:05:12;;;;;;;7.40;1.70;;;14.10;96.80;;;;;;5059815;28;20048;-43
2022/07/28 06:07:39;;;;;;;7.70;1.80;;;14.30;96.50;;;;;;5068874;28;20613;-41
2022/07/28 06:10:06;;;;;;;10.20;1.88;;;14.50;96.50;;;;;;5050366;28;20044;-43
2022/07/28 06:12:39;;;;;;;9.68;1.50;;;14.70;96.10;;;;;;5060832;28;20139;-43
2022/07/28 06:15:07;;;;;;;6.93;1.30;;;14.90;95.80;;;;;;5069557;28;20049;-42
2022/07/28 06:17:34;;;;;;;8.65;1.42;;;15.00;95.40;;;;;;5060557;28;20088;-42
2022/07/28 06:20:01;;;;;;;5.50;1.38;;;15.20;95.20;;;;;;5070528;28;20136;-43
2022/07/28 06:22:29;;;;;;;7.43;1.30;;;15.40;95.00;;;;;;5071054;28;20079;-43
2022/07/28 06:24:55;;;;;;;7.70;1.10;;;15.60;95.10;;;;;;5071378;28;20049;-43
2022/07/28 06:27:22;;;;;;;4.15;1.10;;;15.70;94.70;;;;;;5053840;28;20051;-42
2022/07/28 06:29:49;;;;;;;4.95;1.30;;;15.90;94.60;;;;;;5069915;28;20522;-42
2022/07/28 06:32:16;;;;;;;6.00;1.10;;;16.00;94.20;;;;;;5052629;28;20048;-43
2022/07/28 06:34:43;;;;;;;5.32;1.25;;;16.20;93.90;;;;;;5062217;28;20131;-43
2022/07/28 06:37:09;;;;;;;4.85;1.27;;;16.50;93.50;;;;;;5064652;28;20121;-42
2022/07/28 06:39:37;;;;;;;5.53;1.10;;;16.70;93.10;;;;;;5068875;28;20460;-43
2022/07/28 06:42:04;;;;;;;8.07;1.40;;;16.70;93.00;;;;;;5051745;28;20049;-43
2022/07/28 06:44:31;;;;;;;7.13;1.00;;;16.80;92.60;;;;;;5064217;28;20049;-42
2022/07/28 06:46:58;;;;;;;9.35;1.63;;;16.90;92.30;;;;;;5069592;28;20143;-43
2022/07/28 06:49:25;;;;;;;9.32;1.50;;;17.00;92.20;;;;;;5071946;28;20049;-42
2022/07/28 06:51:51;;;;;;;3.78;1.17;;;17.10;92.10;;;;;;5070889;28;20056;-42
2022/07/28 06:54:18;;;;;;;6.35;1.60;;;17.10;91.90;;;;;;5066960;28;20129;-42
2022/07/28 06:56:46;;;;;;;7.22;1.45;;;17.10;91.70;;;;;;5060784;28;20051;-43
2022/07/28 06:59:14;;;;;;;4.75;1.15;;;17.20;91.60;;;;;;5068948;28;20127;-43
2022/07/28 07:01:41;;;;;;;8.15;1.77;;;17.20;91.70;;;;;;5071421;28;20124;-43
2022/07/28 07:04:08;;;;;;;4.72;1.20;;;17.30;91.60;;;;;;5058083;28;20079;-43
2022/07/28 07:06:34;;;;;;;4.95;1.10;;;17.40;91.20;;;;;;5065408;28;20127;-44
2022/07/28 07:09:01;;;;;;;6.90;1.30;;;17.40;91.10;;;;;;5071991;28;20456;-43
2022/07/28 07:11:28;;;;;;;2.85;1.25;;;17.50;91.10;;;;;;5071127;28;20048;-43
2022/07/28 07:13:56;;;;;;;9.18;1.20;;;17.60;91.30;;;;;;5055351;28;20080;-43
2022/07/28 07:16:23;;;;;;;6.85;1.30;;;17.70;91.00;;;;;;5053470;28;20048;-43
2022/07/28 07:18:51;;;;;;;5.32;1.00;;;17.70;90.90;;;;;;5053643;28;20123;-43
2022/07/28 07:21:18;;;;;;;4.30;1.05;;;17.80;90.70;;;;;;5049130;28;20102;-44
2022/07/28 07:23:45;;;;;;;4.75;1.20;;;17.90;90.50;;;;;;5050986;28;20088;-43
2022/07/28 07:26:12;;;;;;;1.75;0.90;;;18.00;90.50;;;;;;5052278;28;20510;-43
2022/07/28 07:28:40;;;;;;;4.65;1.08;;;18.10;90.40;;;;;;5051573;28;20045;-43
2022/07/28 07:31:08;;;;;;;6.03;1.23;;;18.20;89.70;;;;;;5048168;28;20125;-43
2022/07/28 07:33:35;;;;;;;7.80;1.02;;;18.10;89.10;;;;;;5034917;28;20054;-43
2022/07/28 07:36:02;;;;;;;4.03;0.98;;;18.20;89.10;;;;;;5030697;28;20144;-43
2022/07/28 07:38:28;;;;;;;6.25;1.30;;;18.20;88.50;;;;;;5032196;28;20096;-43
2022/07/28 07:40:55;;;;;;;5.85;1.25;;;18.30;88.60;;;;;;5037289;28;20072;-43
2022/07/28 07:43:22;;;;;;;4.18;1.20;;;18.30;88.80;;;;;;5062182;28;20061;-43
2022/07/28 07:45:49;;;;;;;5.47;1.08;;;18.50;88.50;;;;;;5051947;28;20044;-43
2022/07/28 07:48:17;;;;;;;6.38;1.15;;;18.60;88.10;;;;;;5054507;28;20045;-43
2022/07/28 07:50:44;;;;;;;5.38;0.88;;;18.80;87.40;;;;;;5054495;28;20080;-43
2022/07/28 07:53:10;;;;;;;4.53;1.05;;;19.10;86.90;;;;;;5057143;28;20138;-43
2022/07/28 07:55:37;;;;;;;4.50;1.10;;;19.20;86.60;;;;;;5066203;28;20499;-43
2022/07/28 07:58:04;;;;;;;3.53;0.75;;;19.50;85.90;;;;;;5070813;28;20053;-42
2022/07/28 08:00:31;;;;;;;4.00;1.00;;;19.60;85.40;;;;;;5052420;28;20075;-42
2022/07/28 08:02:58;;;;;;;5.97;0.98;;;19.80;84.60;;;;;;5049484;28;20484;-43
2022/07/28 08:05:26;;;;;;;6.93;0.95;;;19.90;83.70;;;;;;5054646;28;20076;-43
2022/07/28 08:07:53;;;;;;;3.92;1.00;;;20.00;84.20;;;;;;5067004;28;20072;-42
2022/07/28 08:10:19;;;;;;;4.20;0.68;;;20.10;83.50;;;;;;5052895;28;20074;-43
2022/07/28 08:12:46;;;;;;;3.13;1.10;;;20.20;82.30;;;;;;5070583;28;20058;-43
2022/07/28 08:15:13;;;;;;;5.57;1.20;;;20.40;79.00;;;;;;5050136;28;20069;-43
2022/07/28 08:17:40;;;;;;;3.70;1.10;;;20.50;76.90;;;;;;5048031;28;20138;-44
2022/07/28 08:20:08;;;;;;;3.92;0.95;;;20.60;76.40;;;;;;5067985;28;20184;-44
2022/07/28 08:22:46;;;;;;;3.08;0.88;;;20.70;76.20;;;;;;5071328;28;20389;-42
2022/07/28 08:25:13;;;;;;;1.83;0.80;;;20.90;75.80;;;;;;5066258;28;20048;-42
2022/07/28 08:27:39;;;;;;;2.33;1.00;;;20.80;75.30;;;;;;5052357;28;20045;-42
2022/07/28 08:30:07;;;;;;;6.80;1.02;;;20.80;75.00;;;;;;5065834;28;20465;-42
2022/07/28 08:32:34;;;;;;;3.65;1.25;;;20.80;73.70;;;;;;5060233;28;20155;-43
2022/07/28 08:35:01;;;;;;;4.35;0.90;;;20.80;73.10;;;;;;5054086;28;20167;-43
2022/07/28 08:37:29;;;;;;;2.15;0.85;;;20.80;74.60;;;;;;5068573;28;20131;-42
2022/07/28 08:39:57;;;;;;;4.30;0.80;;;20.80;74.70;;;;;;5054351;28;20051;-42
2022/07/28 08:42:28;;;;;;;2.70;0.73;;;20.80;72.90;;;;;;5053294;28;20091;-43
2022/07/28 08:44:57;;;;;;;2.95;0.75;;;20.80;72.20;;;;;;5043243;28;20047;-42
2022/07/28 08:47:24;;;;;;;3.08;0.90;;;20.60;71.30;;;;;;5067871;28;20052;-43
2022/07/28 08:49:51;;;;;;;2.83;0.77;;;20.50;72.50;;;;;;5071061;28;21107;-42
2022/07/28 08:52:18;;;;;;;1.90;0.70;;;20.40;73.30;;;;;;5064145;28;20101;-42
2022/07/28 08:54:45;;;;;;;3.25;0.80;;;20.40;74.00;;;;;;5072190;28;20088;-43
2022/07/28 08:57:17;;;;;;;3.92;1.13;;;20.40;74.90;;;;;;5060704;28;20079;-44
2022/07/28 08:59:44;;;;;;;3.30;0.90;;;20.30;75.20;;;;;;5055492;28;20128;-44
2022/07/28 09:02:12;;;;;;;3.85;1.00;;;20.30;76.10;;;;;;5061889;28;20383;-43
2022/07/28 09:04:39;;;;;;;4.15;1.27;;;20.20;76.50;;;;;;5066574;28;20067;-43
2022/07/28 09:07:06;;;;;;;4.90;1.20;;;20.20;77.30;;;;;;5073880;28;20048;-43
2022/07/28 09:09:33;;;;;;;3.65;0.80;;;20.10;77.70;;;;;;5062557;28;20059;-42
2022/07/28 09:12:01;;;;;;;2.88;0.70;;;20.20;77.80;;;;;;5060196;28;20048;-43
2022/07/28 09:14:29;;;;;;;6.45;1.10;;;20.20;78.40;;;;;;5063804;28;20565;-43
2022/07/28 09:16:56;;;;;;;5.30;1.00;;;20.20;78.10;;;;;;5056590;28;20131;-43
2022/07/28 09:19:22;;;;;;;4.03;1.00;;;20.20;78.60;;;;;;5069231;28;20128;-42
2022/07/28 09:21:49;;;;;;;2.53;0.98;;;20.20;78.00;;;;;;5074577;28;20127;-42
2022/07/28 09:24:34;;;;;;;5.45;1.10;;;20.20;78.30;;;;;;5074381;28;20143;-42
2022/07/28 09:27:02;;;;;;;6.22;1.30;;;20.30;78.00;;;;;;5069631;28;20048;-42
2022/07/28 09:29:30;;;;;;;4.07;1.13;;;20.20;77.80;;;;;;5074204;28;20052;-43
2022/07/28 09:31:56;;;;;;;3.05;0.90;;;20.30;77.80;;;;;;5068284;28;20468;-43
2022/07/28 09:34:23;;;;;;;5.47;1.40;;;20.40;77.50;;;;;;5073522;28;20391;-42
2022/07/28 09:36:50;;;;;;;4.13;0.98;;;20.40;76.40;;;;;;5069940;28;20445;-43
2022/07/28 09:39:31;;;;;;;4.10;0.93;;;20.40;76.00;;;;;;5057381;28;20055;-42
2022/07/28 09:41:58;;;;;;;;;;;20.50;76.70;;;;;;5050307;28;20491;-41
2022/07/28 09:44:26;;;;;;;3.90;1.02;;;20.50;77.40;;;;;;5051596;28;19916;-42
2022/07/28 09:46:54;;;;;;;6.72;1.20;;;20.60;77.00;;;;;;5068247;28;20127;-42
2022/07/28 09:49:21;;;;;;;4.07;1.10;;;20.70;75.70;;;;;;5065885;28;20055;-43
2022/07/28 09:51:59;;;;;;;3.55;1.00;;;20.70;75.60;;;;;;5072214;28;20119;-43
2022/07/28 09:54:26;;;;;;;4.60;1.00;;;21.00;75.90;;;;;;5055776;28;20037;-43
2022/07/28 09:56:52;;;;;;;5.93;1.10;;;21.20;74.20;;;;;;5051459;28;20053;-43
2022/07/28 09:59:20;;;;;;;4.75;1.20;;;21.30;73.20;;;;;;5067696;28;20070;-43
2022/07/28 10:01:51;;;;;;;4.82;1.23;;;21.20;72.90;;;;;;5054184;28;20057;-43
2022/07/28 10:04:30;;;;;;;6.00;1.05;;;21.20;73.00;;;;;;5059187;28;20056;-43
2022/07/28 10:07:01;;;;;;;7.55;1.27;;;21.20;73.50;;;;;;5035277;28;20081;-43
2022/07/28 10:09:28;;;;;;;3.75;1.20;;;21.40;74.60;;;;;;5068209;28;20062;-43
2022/07/28 10:11:55;;;;;;;6.65;1.40;;;21.50;73.90;;;;;;5058275;28;20049;-43
2022/07/28 10:14:31;;;;;;;6.43;1.20;;;21.60;73.40;;;;;;5053786;28;20045;-43
2022/07/28 10:16:58;;;;;;;4.30;1.27;;;21.50;73.20;;;;;;5054562;28;20045;-43
2022/07/28 10:19:26;;;;;;;6.57;1.20;;;21.50;72.90;;;;;;5053235;28;20127;-43
2022/07/28 10:21:53;;;;;;;4.60;1.25;;;21.60;73.30;;;;;;5051142;28;20135;-43
2022/07/28 10:24:21;;;;;;;5.88;1.20;;;21.70;73.20;;;;;;5050947;28;20045;-42
2022/07/28 10:26:48;;;;;;;7.40;1.23;;;21.90;71.80;;;;;;5055433;28;20072;-43
2022/07/28 10:29:16;;;;;;;7.53;1.40;;;22.10;71.40;;;;;;5057239;28;20072;-43
2022/07/28 10:31:45;;;;;;;6.15;1.17;;;22.20;71.80;;;;;;5070162;28;20520;-43
2022/07/28 10:34:17;;;;;;;8.40;1.27;;;22.40;71.80;;;;;;5052151;28;20397;-43
2022/07/28 10:36:45;;;;;;;;;;;22.60;71.00;;;;;;5058084;28;20049;-43
2022/07/28 10:39:13;;;;;;;13.43;1.30;;;22.70;72.00;;;;;;5061782;28;20440;-43
2022/07/28 10:41:41;;;;;;;4.95;1.02;;;22.90;71.40;;;;;;5051429;28;20076;-43
2022/07/28 10:44:08;;;;;;;5.40;1.42;;;23.10;70.10;;;;;;5048289;28;20124;-43
2022/07/28 10:46:35;;;;;;;6.95;1.42;;;23.10;68.80;;;;;;5056172;28;20053;-42
2022/07/28 10:49:03;;;;;;;3.15;1.10;;;23.20;69.20;;;;;;5055107;28;20045;-43
2022/07/28 10:51:30;;;;;;;3.95;0.90;;;23.30;68.20;;;;;;5055146;28;20090;-43
2022/07/28 10:54:01;;;;;;;4.28;0.90;;;23.30;67.90;;;;;;5072024;28;20087;-44
2022/07/28 10:56:34;;;;;;;6.18;1.77;;;23.10;68.80;;;;;;5057403;28;20060;-42
2022/07/28 10:59:05;;;;;;;4.15;1.02;;;23.10;68.50;;;;;;5046075;28;20041;-42
2022/07/28 11:01:35;;;;;;;2.55;0.77;;;23.00;68.60;;;;;;5042971;28;20140;-42
2022/07/28 11:04:02;;;;;;;3.35;1.13;;;23.00;68.20;;;;;;5050433;28;20040;-42
2022/07/28 11:06:30;;;;;;;2.78;1.10;;;23.00;69.10;;;;;;5058907;28;20077;-43
2022/07/28 11:08:58;;;;;;;5.00;1.20;;;23.20;69.20;;;;;;5050885;28;20049;-43
2022/07/28 11:11:45;;;;;;;2.40;0.88;;;23.30;67.00;;;;;;5051967;28;20422;-42
2022/07/28 11:14:32;;;;;;;2.50;1.05;;;23.30;67.30;;;;;;5040420;28;20067;-42
2022/07/28 11:17:20;;;;;;;3.70;1.02;;;23.30;69.00;;;;;;5051640;28;20045;-43
2022/07/28 11:19:54;;;;;;;3.03;0.82;;;23.40;67.70;;;;;;5051146;28;20073;-43
2022/07/28 11:22:27;;;;;;;3.28;1.10;;;23.50;67.70;;;;;;5060258;28;20418;-42
2022/07/28 11:25:15;;;;;;;3.20;0.77;;;23.40;66.80;;;;;;5048843;28;20037;-43
2022/07/28 11:28:02;;;;;;;1.63;0.77;;;23.30;67.20;;;;;;5048057;28;20435;-43
2022/07/28 11:30:53;;;;;;;4.85;1.30;;;23.30;66.50;;;;;;5048474;28;20053;-43
2022/07/28 11:33:20;;;;;;;4.22;1.00;;;23.20;67.10;;;;;;5049760;28;20095;-43
2022/07/28 11:36:05;;;;;;;3.88;0.90;;;23.10;66.40;;;;;;5053226;28;20051;-44
2022/07/28 11:38:32;;;;;;;6.03;1.30;;;23.10;66.10;;;;;;5050771;28;20048;-43
2022/07/28 11:41:00;;;;;;;3.55;1.10;;;23.20;66.20;;;;;;5063433;28;20072;-43
2022/07/28 11:43:32;;;;;;;3.58;1.00;;;23.40;66.70;;;;;;5057232;28;20127;-43
2022/07/28 11:46:38;;;;;;;3.80;1.10;;;23.50;66.40;;;;;;5049170;28;20102;-43
2022/07/28 11:49:27;;;;;;;4.32;1.20;;;23.80;67.20;;;;;;4972328;28;20057;-43
2022/07/28 11:52:20;;;;;;;4.88;1.17;;;24.00;66.30;;;;;;4986173;28;20699;-43
2022/07/28 11:54:56;;;;;;;2.13;0.90;;;24.10;65.00;;;;;;5035809;28;20063;-43
2022/07/28 11:57:25;;;;;;;3.10;0.88;;;24.00;65.90;;;;;;5052997;28;20091;-44
2022/07/28 11:59:55;;;;;;;5.22;0.95;;;24.00;63.00;;;;;;5055136;28;20044;-43
2022/07/28 12:02:24;;;;;;;3.83;0.82;;;23.80;62.00;;;;;;5055471;28;20048;-43
2022/07/28 12:05:09;;;;;;;2.03;0.80;;;23.80;61.90;;;;;;5062470;28;20041;-43
2022/07/28 12:07:41;;;;;;;2.25;0.70;;;23.80;62.60;;;;;;5050646;28;20136;-44
2022/07/28 12:10:39;;;;;;;2.95;1.00;;;24.00;62.80;;;;;;5048819;28;20464;-42
2022/07/28 12:13:08;;;;;;;6.13;1.10;;;24.10;61.60;;;;;;4992485;28;20049;-43
2022/07/28 12:15:34;;;;;;;4.88;1.20;;;24.00;62.20;;;;;;4989456;28;20069;-42
2022/07/28 12:18:01;;;;;;;4.20;1.13;;;24.20;62.20;;;;;;4990864;28;20125;-43
2022/07/28 12:20:31;;;;;;;4.25;0.93;;;24.50;61.30;;;;;;5000099;28;20038;-43
2022/07/28 12:23:00;;;;;;;4.32;0.88;;;24.60;60.40;;;;;;5062028;28;20087;-43
2022/07/28 12:25:26;;;;;;;7.00;1.40;;;24.80;60.70;;;;;;5052246;28;20581;-42
2022/07/28 12:27:53;;;;;;;5.00;1.20;;;25.10;61.20;;;;;;5060564;28;20106;-42
2022/07/28 12:30:26;;;;;;;2.05;0.65;;;25.20;61.00;;;;;;5049565;28;20574;-43
2022/07/28 12:32:53;;;;;;;3.35;0.90;;;25.10;61.00;;;;;;5053165;28;20059;-43
2022/07/28 12:35:19;;;;;;;2.55;0.90;;;24.80;60.70;;;;;;5073753;28;20052;-43
2022/07/28 12:37:47;;;;;;;2.42;0.80;;;24.80;60.20;;;;;;5069177;28;20123;-42
2022/07/28 12:40:15;;;;;;;2.95;0.90;;;24.90;60.90;;;;;;5057802;28;20385;-42
2022/07/28 12:42:41;;;;;;;2.75;0.80;;;25.10;59.30;;;;;;5065912;28;20379;-43
2022/07/28 12:45:09;;;;;;;2.58;0.90;;;25.30;59.90;;;;;;5064295;28;20808;-44
2022/07/28 12:47:38;;;;;;;3.00;1.10;;;25.40;59.10;;;;;;5053682;28;20052;-43
2022/07/28 12:50:08;;;;;;;2.38;0.80;;;25.40;58.40;;;;;;5055579;28;20067;-43
2022/07/28 12:52:36;;;;;;;1.95;0.95;;;25.50;58.30;;;;;;5068293;28;20044;-43
2022/07/28 12:55:02;;;;;;;4.70;1.00;;;25.60;58.00;;;;;;5060215;28;20140;-43
2022/07/28 12:57:39;;;;;;;1.98;0.75;;;25.70;56.40;;;;;;5060188;28;20451;-42
2022/07/28 13:00:07;;;;;;;1.45;0.77;;;25.60;55.80;;;;;;5050203;28;20484;-42